createdAt,value
2019-06-01T00:02:17.915Z,99328.53
2019-06-01T00:04:51.487Z,99330.95
2019-06-01T00:07:25.370Z,99332.53
2019-06-01T00:09:58.867Z,99328.78
2019-06-01T00:12:32.669Z,99321.97
2019-06-01T00:15:06.024Z,99334.57
2019-06-01T00:17:40.043Z,99326.38
2019-06-01T00:20:17.562Z,99331.60
2019-06-01T00:22:51.763Z,99327.39
2019-06-01T00:25:26.016Z,99325.24
2019-06-01T00:27:59.959Z,99327.50
2019-06-01T00:30:33.607Z,99326.08
2019-06-01T00:33:07.221Z,99325.98
2019-06-01T00:35:41.309Z,99322.34
2019-06-01T00:38:15.247Z,99327.83
2019-06-01T00:40:48.419Z,99320.19
2019-06-01T00:43:22.119Z,99322.13
2019-06-01T00:45:59.837Z,99320.17
2019-06-01T00:48:32.902Z,99322.61
2019-06-01T00:51:06.706Z,99318.31
2019-06-01T00:53:43.302Z,99314.40
2019-06-01T00:56:16.323Z,99317.56
2019-06-01T00:58:49.927Z,99318.28
2019-06-01T01:01:23.829Z,99327.02
2019-06-01T01:03:56.819Z,99321.25
2019-06-01T01:06:30.565Z,99324.58
2019-06-01T01:09:04.424Z,99319.56
2019-06-01T01:11:37.564Z,99319.72
2019-06-01T01:14:10.616Z,99323.53
2019-06-01T01:16:43.961Z,99318.22
2019-06-01T01:19:17.434Z,99314.07
2019-06-01T01:21:54.129Z,99309.34
2019-06-01T01:24:27.557Z,99311.75
2019-06-01T01:27:01.735Z,99305.10
2019-06-01T01:29:35.128Z,99307.15
2019-06-01T01:32:08.791Z,99301.18
2019-06-01T01:34:42.657Z,99303.95
2019-06-01T01:37:15.757Z,99308.80
2019-06-01T01:39:50.050Z,99306.81
2019-06-01T01:42:23.717Z,99301.33
2019-06-01T01:44:57.327Z,99300.94
2019-06-01T01:47:31.087Z,99297.97
2019-06-01T01:50:04.713Z,99295.98
2019-06-01T01:52:39.033Z,99294.47
2019-06-01T01:55:13.196Z,99295.12
2019-06-01T01:57:47.452Z,99301.63
2019-06-01T02:00:48.141Z,99303.84
2019-06-01T02:03:22.351Z,99304.95
2019-06-01T02:05:56.928Z,99296.16
2019-06-01T02:08:31.764Z,99293.81
2019-06-01T02:11:05.724Z,99299.84
2019-06-01T02:13:40.558Z,99287.88
2019-06-01T02:16:15.473Z,99284.46
2019-06-01T02:18:48.973Z,99282.67
2019-06-01T02:21:22.573Z,99273.95
2019-06-01T02:23:56.995Z,99282.31
2019-06-01T02:26:29.930Z,99279.11
2019-06-01T02:29:04.367Z,99281.56
2019-06-01T02:31:42.450Z,99276.90
2019-06-01T02:34:12.063Z,99282.95
2019-06-01T02:36:45.323Z,99293.83
2019-06-01T02:39:18.966Z,99289.47
2019-06-01T02:41:52.573Z,99293.38
2019-06-01T02:44:25.903Z,99287.98
2019-06-01T02:47:01.496Z,99285.37
2019-06-01T02:49:34.956Z,99290.77
2019-06-01T02:52:08.717Z,99277.69
2019-06-01T02:54:41.971Z,99278.48
2019-06-01T02:57:15.955Z,99284.33
2019-06-01T02:59:49.198Z,99279.97
2019-06-01T03:02:22.844Z,99278.91
2019-06-01T03:04:57.076Z,99281.60
2019-06-01T03:07:32.884Z,99281.66
2019-06-01T03:10:08.984Z,99277.00
2019-06-01T03:12:52.987Z,99274.70
2019-06-01T03:15:27.340Z,99282.51
2019-06-01T03:18:03.543Z,99287.08
2019-06-01T03:20:39.184Z,99296.16
2019-06-01T03:23:15.447Z,99285.20
2019-06-01T03:25:52.019Z,99288.84
2019-06-01T03:28:28.502Z,99286.98
2019-06-01T03:31:03.427Z,99281.39
2019-06-01T03:33:37.237Z,99288.45
2019-06-01T03:36:10.894Z,99291.69
2019-06-01T03:38:45.625Z,99289.89
2019-06-01T03:41:38.822Z,99293.11
2019-06-01T03:44:13.439Z,99290.56
2019-06-01T03:46:48.298Z,99298.64
2019-06-01T03:49:21.799Z,99296.45
2019-06-01T03:51:55.578Z,99298.20
2019-06-01T03:54:29.274Z,99301.22
2019-06-01T03:57:03.785Z,99305.24
2019-06-01T03:59:38.381Z,99297.08
2019-06-01T04:02:12.427Z,99297.47
2019-06-01T04:04:46.020Z,99289.70
2019-06-01T04:07:19.778Z,99286.34
2019-06-01T04:09:53.531Z,99285.64
2019-06-01T04:12:27.517Z,99293.77
2019-06-01T04:15:00.896Z,99289.51
2019-06-01T04:17:34.268Z,99292.16
2019-06-01T04:20:08.213Z,99286.80
2019-06-01T04:22:41.919Z,99283.28
2019-06-01T04:25:15.402Z,99288.30
2019-06-01T04:27:48.631Z,99290.25
2019-06-01T04:30:27.286Z,99288.95
2019-06-01T04:33:00.651Z,99289.80
2019-06-01T04:35:33.929Z,99290.55
2019-06-01T04:38:07.230Z,99294.86
2019-06-01T04:40:40.549Z,99293.80
2019-06-01T04:43:14.932Z,99289.94
2019-06-01T04:45:48.156Z,99293.72
2019-06-01T04:48:21.658Z,99297.73
2019-06-01T04:50:56.299Z,99292.60
2019-06-01T04:53:29.286Z,99294.94
2019-06-01T04:56:04.687Z,99306.58
2019-06-01T04:58:38.472Z,99308.47
2019-06-01T05:01:13.344Z,99317.05
2019-06-01T05:03:47.282Z,99308.66
2019-06-01T05:06:39.689Z,99307.31
2019-06-01T05:09:13.625Z,99308.41
2019-06-01T05:11:47.587Z,99311.58
2019-06-01T05:14:21.422Z,99310.44
2019-06-01T05:16:55.610Z,99301.07
2019-06-01T05:19:29.285Z,99316.67
2019-06-01T05:22:03.249Z,99306.52
2019-06-01T05:24:37.459Z,99303.77
2019-06-01T05:27:11.118Z,99300.23
2019-06-01T05:29:44.705Z,99300.97
2019-06-01T05:32:18.888Z,99302.44
2019-06-01T05:34:53.177Z,99306.78
2019-06-01T05:37:27.119Z,99299.71
2019-06-01T05:40:00.776Z,99299.02
2019-06-01T05:42:34.343Z,99304.32
2019-06-01T05:45:13.033Z,99307.63
2019-06-01T05:47:46.655Z,99299.84
2019-06-01T05:50:22.696Z,99304.70
2019-06-01T05:52:56.799Z,99296.80
2019-06-01T05:55:30.864Z,99294.17
2019-06-01T05:58:04.110Z,99293.13
2019-06-01T06:00:45.552Z,99304.14
2019-06-01T06:03:22.283Z,99298.80
2019-06-01T06:05:55.860Z,99302.64
2019-06-01T06:08:29.610Z,99300.87
2019-06-01T06:11:03.132Z,99307.34
2019-06-01T06:13:36.336Z,99303.49
2019-06-01T06:16:09.674Z,99308.64
2019-06-01T06:18:44.343Z,99303.09
2019-06-01T06:21:18.665Z,99310.31
2019-06-01T06:23:52.444Z,99307.46
2019-06-01T06:26:26.096Z,99304.02
2019-06-01T06:28:59.748Z,99306.23
2019-06-01T06:31:33.256Z,99303.88
2019-06-01T06:34:08.305Z,99307.79
2019-06-01T06:36:42.081Z,99308.44
2019-06-01T06:39:17.912Z,99315.44
2019-06-01T06:41:52.538Z,99313.88
2019-06-01T06:44:27.122Z,99316.09
2019-06-01T06:47:01.490Z,99321.23
2019-06-01T06:49:34.761Z,99313.52
2019-06-01T06:52:10.108Z,99318.83
2019-06-01T06:54:44.184Z,99323.73
2019-06-01T06:57:18.493Z,99328.93
2019-06-01T06:59:52.598Z,99323.81
2019-06-01T07:02:27.071Z,99319.48
2019-06-01T07:05:02.028Z,99322.10
2019-06-01T07:07:36.243Z,99319.88
2019-06-01T07:10:10.094Z,99317.80
2019-06-01T07:12:43.771Z,99323.37
2019-06-01T07:15:17.342Z,99321.20
2019-06-01T07:17:53.641Z,99319.98
2019-06-01T07:20:33.767Z,99316.84
2019-06-01T07:23:23.924Z,99318.39
2019-06-01T07:26:02.367Z,99320.08
2019-06-01T07:28:44.546Z,99313.45
2019-06-01T07:31:26.410Z,99314.74
2019-06-01T07:34:06.751Z,99315.83
2019-06-01T07:36:44.833Z,99319.77
2019-06-01T07:39:26.735Z,99314.80
2019-06-01T07:42:06.708Z,99312.63
2019-06-01T07:44:46.436Z,99310.59
2019-06-01T07:47:27.380Z,99308.98
2019-06-01T07:50:06.304Z,99305.94
2019-06-01T07:52:43.147Z,99305.52
2019-06-01T07:55:23.476Z,99292.09
2019-06-01T07:58:06.653Z,99295.74
2019-06-01T08:00:49.107Z,99293.03
2019-06-01T08:03:31.158Z,99288.31
2019-06-01T08:06:06.545Z,99286.50
2019-06-01T08:08:43.631Z,99289.63
2019-06-01T08:11:35.110Z,99292.67
2019-06-01T08:14:13.062Z,99288.81
2019-06-01T08:16:54.348Z,99284.69
2019-06-01T08:19:33.782Z,99287.55
2019-06-01T08:22:16.231Z,99283.05
2019-06-01T08:24:55.394Z,99270.73
2019-06-01T08:27:47.917Z,99271.77
2019-06-01T08:30:27.086Z,99266.67
2019-06-01T08:33:14.245Z,99270.42
2019-06-01T08:35:50.700Z,99280.10
2019-06-01T08:38:34.243Z,99282.00
2019-06-01T08:41:10.685Z,99274.09
2019-06-01T08:43:49.928Z,99288.23
2019-06-01T08:46:31.799Z,99279.66
2019-06-01T08:49:28.187Z,99278.66
2019-06-01T08:52:06.247Z,99284.96
2019-06-01T08:54:45.885Z,99284.65
2019-06-01T08:57:24.514Z,99286.93
2019-06-01T09:00:16.186Z,99286.02
2019-06-01T09:02:58.998Z,99288.52
2019-06-01T09:05:51.248Z,99287.08
2019-06-01T09:08:30.821Z,99280.84
2019-06-01T09:11:15.128Z,99279.62
2019-06-01T09:13:58.473Z,99283.66
2019-06-01T09:16:38.124Z,99275.27
2019-06-01T09:19:21.278Z,99271.53
2019-06-01T09:22:01.762Z,99268.63
2019-06-01T09:24:40.224Z,99268.56
2019-06-01T09:27:26.133Z,99266.38
2019-06-01T09:30:08.938Z,99259.33
2019-06-01T09:32:53.794Z,99269.55
2019-06-01T09:36:09.793Z,99267.48
2019-06-01T09:38:51.190Z,99262.80
2019-06-01T09:41:30.797Z,99267.83
2019-06-01T09:44:13.077Z,99263.57
2019-06-01T09:46:53.618Z,99260.11
2019-06-01T09:49:32.652Z,99251.97
2019-06-01T09:52:21.973Z,99254.70
2019-06-01T09:54:59.413Z,99251.31
2019-06-01T09:57:43.944Z,99255.40
2019-06-01T10:00:28.338Z,99258.70
2019-06-01T10:03:28.122Z,99252.66
2019-06-01T10:06:08.661Z,99248.33
2019-06-01T10:08:51.053Z,99253.39
2019-06-01T10:11:34.299Z,99249.17
2019-06-01T10:14:15.739Z,99242.42
2019-06-01T10:16:54.881Z,99251.31
2019-06-01T10:19:36.755Z,99247.22
2019-06-01T10:22:22.292Z,99250.50
2019-06-01T10:25:00.658Z,99242.82
2019-06-01T10:27:42.920Z,99255.66
2019-06-01T10:30:31.661Z,99253.59
2019-06-01T10:33:10.365Z,99240.59
2019-06-01T10:35:46.951Z,99240.48
2019-06-01T10:38:39.371Z,99242.10
2019-06-01T10:41:24.474Z,99241.52
2019-06-01T10:44:04.162Z,99231.28
2019-06-01T10:46:45.785Z,99226.03
2019-06-01T10:49:22.649Z,99232.39
2019-06-01T10:52:02.220Z,99220.14
2019-06-01T10:54:42.476Z,99219.11
2019-06-01T10:57:22.706Z,99217.48
2019-06-01T10:59:58.212Z,99223.87
2019-06-01T11:02:32.536Z,99223.33
2019-06-01T11:05:07.896Z,99218.48
2019-06-01T11:07:43.033Z,99203.43
2019-06-01T11:10:20.852Z,99213.43
2019-06-01T11:12:56.707Z,99214.27
2019-06-01T11:15:30.774Z,99200.73
2019-06-01T11:18:07.123Z,99200.61
2019-06-01T11:20:41.499Z,99197.57
2019-06-01T11:23:15.801Z,99197.72
2019-06-01T11:25:50.265Z,99187.80
2019-06-01T11:28:24.993Z,99181.64
2019-06-01T11:30:58.068Z,99182.75
2019-06-01T11:33:33.950Z,99185.73
2019-06-01T11:36:08.255Z,99179.69
2019-06-01T11:38:42.496Z,99172.70
2019-06-01T11:41:18.492Z,99174.52
2019-06-01T11:43:50.282Z,99168.52
2019-06-01T11:46:25.674Z,99168.08
2019-06-01T11:48:59.674Z,99168.98
2019-06-01T11:51:34.831Z,99159.97
2019-06-01T11:54:11.165Z,99169.25
2019-06-01T11:56:48.171Z,99167.56
2019-06-01T11:59:24.326Z,99157.27
2019-06-01T12:01:58.356Z,99150.91
2019-06-01T12:04:32.644Z,99147.58
2019-06-01T12:07:17.643Z,99138.48
2019-06-01T12:09:44.223Z,99130.65
2019-06-01T12:12:19.193Z,99135.66
2019-06-01T12:14:54.052Z,99121.52
2019-06-01T12:17:28.070Z,99123.23
2019-06-01T12:20:01.560Z,99121.73
2019-06-01T12:22:36.752Z,99122.95
2019-06-01T12:25:10.765Z,99131.50
2019-06-01T12:27:45.974Z,99123.95
2019-06-01T12:30:21.966Z,99117.70
2019-06-01T12:33:02.209Z,99108.38
2019-06-01T12:35:37.808Z,99108.83
2019-06-01T12:38:13.576Z,99113.67
2019-06-01T12:40:49.019Z,99106.83
2019-06-01T12:43:23.421Z,99101.77
2019-06-01T12:46:07.318Z,99101.39
2019-06-01T12:48:33.483Z,99107.57
2019-06-01T12:51:11.153Z,99106.95
2019-06-01T12:53:44.995Z,99100.20
2019-06-01T12:56:19.013Z,99099.69
2019-06-01T12:58:53.333Z,99093.56
2019-06-01T13:01:28.313Z,99090.98
2019-06-01T13:04:04.072Z,99094.34
2019-06-01T13:06:37.745Z,99095.59
2019-06-01T13:09:15.494Z,99097.45
2019-06-01T13:11:52.681Z,99092.36
2019-06-01T13:14:27.623Z,99091.55
2019-06-01T13:17:07.024Z,99092.36
2019-06-01T13:19:37.642Z,99091.73
2019-06-01T13:22:12.441Z,99094.48
2019-06-01T13:24:46.169Z,99090.92
2019-06-01T13:27:21.819Z,99096.71
2019-06-01T13:29:56.083Z,99090.50
2019-06-01T13:32:30.301Z,99091.73
2019-06-01T13:35:07.145Z,99083.67
2019-06-01T13:37:42.427Z,99089.86
2019-06-01T13:40:16.497Z,99086.16
2019-06-01T13:42:51.228Z,99087.28
2019-06-01T13:45:26.231Z,99091.03
2019-06-01T13:48:00.949Z,99079.91
2019-06-01T13:50:35.023Z,99078.94
2019-06-01T13:53:08.439Z,99082.45
2019-06-01T13:55:42.637Z,99074.55
2019-06-01T13:58:16.382Z,99079.58
2019-06-01T14:00:51.578Z,99066.43
2019-06-01T14:03:29.236Z,99065.67
2019-06-01T14:06:03.271Z,99068.01
2019-06-01T14:08:37.601Z,99071.31
2019-06-01T14:11:11.498Z,99051.42
2019-06-01T14:13:46.008Z,99052.59
2019-06-01T14:16:21.450Z,99056.57
2019-06-01T14:18:56.069Z,99055.00
2019-06-01T14:21:31.164Z,99055.50
2019-06-01T14:24:05.356Z,99057.33
2019-06-01T14:26:39.653Z,99045.95
2019-06-01T14:29:13.602Z,99045.94
2019-06-01T14:31:50.479Z,99037.84
2019-06-01T14:34:25.208Z,99035.38
2019-06-01T14:36:59.882Z,99046.23
2019-06-01T14:39:33.813Z,99038.13
2019-06-01T14:42:07.150Z,99037.93
2019-06-01T14:44:41.150Z,99033.84
2019-06-01T14:47:18.595Z,99030.41
2019-06-01T14:49:53.464Z,99029.45
2019-06-01T14:52:26.965Z,99029.47
2019-06-01T14:55:09.529Z,99018.02
2019-06-01T14:57:45.128Z,99020.81
2019-06-01T15:00:20.800Z,99029.35
2019-06-01T15:03:05.823Z,99021.31
2019-06-01T15:05:39.861Z,99020.38
2019-06-01T15:08:14.935Z,99017.98
2019-06-01T15:10:50.540Z,99021.75
2019-06-01T15:13:27.040Z,99008.70
2019-06-01T15:16:02.147Z,99019.47
2019-06-01T15:18:36.318Z,99016.16
2019-06-01T15:21:11.098Z,99012.51
2019-06-01T15:23:46.763Z,99014.07
2019-06-01T15:26:20.812Z,99014.28
2019-06-01T15:28:54.801Z,99011.71
2019-06-01T15:31:29.085Z,99005.91
2019-06-01T15:34:07.976Z,99005.61
2019-06-01T15:36:41.438Z,98998.72
2019-06-01T15:39:24.617Z,99006.03
2019-06-01T15:41:51.156Z,98997.05
2019-06-01T15:44:26.689Z,98996.03
2019-06-01T15:47:02.072Z,98994.69
2019-06-01T15:49:36.972Z,98987.58
2019-06-01T15:52:12.855Z,98997.63
2019-06-01T15:54:49.925Z,98987.55
2019-06-01T15:57:24.769Z,98992.92
2019-06-01T15:59:58.615Z,98998.89
2019-06-01T16:02:32.517Z,98994.88
2019-06-01T16:05:06.512Z,98986.28
2019-06-01T16:07:40.405Z,98984.61
2019-06-01T16:10:15.207Z,98985.53
2019-06-01T16:12:48.993Z,98985.14
2019-06-01T16:15:23.530Z,98994.81
2019-06-01T16:17:57.930Z,98987.59
2019-06-01T16:20:31.570Z,98991.80
2019-06-01T16:23:06.387Z,98986.40
2019-06-01T16:25:40.021Z,98992.11
2019-06-01T16:28:13.843Z,98990.46
2019-06-01T16:30:48.348Z,98990.33
2019-06-01T16:33:24.159Z,98992.69
2019-06-01T16:36:00.940Z,98986.59
2019-06-01T16:38:34.493Z,98987.81
2019-06-01T16:41:08.701Z,98983.70
2019-06-01T16:43:43.581Z,98984.51
2019-06-01T16:46:22.791Z,98980.14
2019-06-01T16:48:57.581Z,98977.58
2019-06-01T16:51:59.065Z,98974.27
2019-06-01T16:54:34.560Z,98970.47
2019-06-01T16:57:12.865Z,98968.11
2019-06-01T16:59:48.211Z,98966.59
2019-06-01T17:02:25.497Z,98960.05
2019-06-01T17:05:01.172Z,98956.66
2019-06-01T17:07:38.663Z,98952.38
2019-06-01T17:10:25.618Z,98950.78
2019-06-01T17:12:53.697Z,98953.22
2019-06-01T17:15:28.633Z,98951.33
2019-06-01T17:18:08.210Z,98948.19
2019-06-01T17:20:49.768Z,98945.64
2019-06-01T17:23:27.322Z,98947.69
2019-06-01T17:26:01.848Z,98949.61
2019-06-01T17:28:35.971Z,98950.60
2019-06-01T17:31:12.583Z,98953.73
2019-06-01T17:33:46.362Z,98949.16
2019-06-01T17:36:22.380Z,98948.55
2019-06-01T17:38:56.242Z,98946.52
2019-06-01T17:41:30.936Z,98945.62
2019-06-01T17:44:08.995Z,98948.77
2019-06-01T17:46:52.800Z,98949.18
2019-06-01T17:49:19.843Z,98945.38
2019-06-01T17:51:54.440Z,98941.16
2019-06-01T17:54:28.264Z,98941.83
2019-06-01T17:57:03.076Z,98952.30
2019-06-01T17:59:37.528Z,98939.50
2019-06-01T18:02:12.768Z,98937.44
2019-06-01T18:04:47.287Z,98937.52
2019-06-01T18:07:24.719Z,98929.36
2019-06-01T18:09:59.159Z,98933.36
2019-06-01T18:12:38.515Z,98936.75
2019-06-01T18:15:12.864Z,98934.66
2019-06-01T18:17:49.460Z,98933.83
2019-06-01T18:20:23.683Z,98933.70
2019-06-01T18:22:57.637Z,98938.50
2019-06-01T18:25:32.311Z,98942.05
2019-06-01T18:28:06.991Z,98935.29
2019-06-01T18:30:41.231Z,98945.45
2019-06-01T18:33:18.559Z,98943.20
2019-06-01T18:35:53.097Z,98946.42
2019-06-01T18:38:27.149Z,98950.95
2019-06-01T18:41:12.853Z,98949.32
2019-06-01T18:43:36.863Z,98954.44
2019-06-01T18:46:10.619Z,98943.48
2019-06-01T18:48:44.432Z,98943.47
2019-06-01T18:51:24.248Z,98943.52
2019-06-01T18:53:57.601Z,98948.12
2019-06-01T18:56:31.458Z,98949.72
2019-06-01T18:59:06.805Z,98954.31
2019-06-01T19:01:40.507Z,98957.23
2019-06-01T19:04:13.898Z,98955.57
2019-06-01T19:06:49.877Z,98964.77
2019-06-01T19:09:23.737Z,98963.08
2019-06-01T19:11:59.166Z,98962.36
2019-06-01T19:14:33.523Z,98959.63
2019-06-01T19:17:10.561Z,98962.87
2019-06-01T19:19:44.469Z,98967.48
2019-06-01T19:22:19.754Z,98967.44
2019-06-01T19:24:57.963Z,98978.31
2019-06-01T19:27:32.739Z,98975.61
2019-06-01T19:30:08.889Z,98981.61
2019-06-01T19:32:43.900Z,98990.28
2019-06-01T19:35:17.998Z,98988.81
2019-06-01T19:37:52.216Z,98987.58
2019-06-01T19:40:30.220Z,98999.19
2019-06-01T19:43:04.353Z,98997.42
2019-06-01T19:45:37.875Z,99002.27
2019-06-01T19:48:14.358Z,99001.34
2019-06-01T19:50:48.208Z,99007.37
2019-06-01T19:53:31.424Z,98997.18
2019-06-01T19:56:06.621Z,99000.20
2019-06-01T19:58:39.911Z,99007.72
2019-06-01T20:01:14.237Z,99006.30
2019-06-01T20:03:48.871Z,99003.70
2019-06-01T20:06:24.978Z,99005.48
2019-06-01T20:09:05.232Z,99012.48
2019-06-01T20:11:40.550Z,99017.42
2019-06-01T20:14:14.733Z,99016.26
2019-06-01T20:16:48.175Z,99022.80
2019-06-01T20:19:21.921Z,99020.72
2019-06-01T20:21:56.046Z,99024.41
2019-06-01T20:24:30.015Z,99024.07
2019-06-01T20:27:06.489Z,99027.75
2019-06-01T20:29:40.721Z,99024.77
2019-06-01T20:32:15.909Z,99025.02
2019-06-01T20:34:50.180Z,99025.36
2019-06-01T20:37:24.425Z,99027.23
2019-06-01T20:40:08.045Z,99031.96
2019-06-01T20:42:42.098Z,99025.45
2019-06-01T20:45:16.907Z,99024.17
2019-06-01T20:47:51.513Z,99026.25
2019-06-01T20:50:25.595Z,99031.85
2019-06-01T20:53:00.406Z,99029.43
2019-06-01T20:55:35.520Z,99033.09
2019-06-01T20:58:09.615Z,99034.77
2019-06-01T21:00:47.102Z,99028.14
2019-06-01T21:03:21.934Z,99025.95
2019-06-01T21:05:59.630Z,99026.33
2019-06-01T21:08:33.582Z,99031.06
2019-06-01T21:11:08.257Z,99034.50
2019-06-01T21:13:41.953Z,99037.07
2019-06-01T21:16:16.170Z,99042.16
2019-06-01T21:18:50.023Z,99038.12
2019-06-01T21:21:25.026Z,99042.06
2019-06-01T21:23:59.209Z,99039.71
2019-06-01T21:26:34.165Z,99038.55
2019-06-01T21:29:09.813Z,99038.59
2019-06-01T21:31:43.825Z,99039.16
2019-06-01T21:34:17.482Z,99046.34
2019-06-01T21:36:51.639Z,99043.53
2019-06-01T21:39:25.565Z,99042.13
2019-06-01T21:41:59.565Z,99039.64
2019-06-01T21:44:33.205Z,99041.43
2019-06-01T21:47:07.011Z,99050.20
2019-06-01T21:49:41.087Z,99046.97
2019-06-01T21:52:15.813Z,99047.23
2019-06-01T21:54:53.414Z,99049.59
2019-06-01T21:57:26.816Z,99039.12
2019-06-01T22:00:03.925Z,99041.98
2019-06-01T22:02:37.454Z,99042.48
2019-06-01T22:05:12.214Z,99042.08
2019-06-01T22:07:46.006Z,99043.56
2019-06-01T22:10:19.514Z,99042.05
2019-06-01T22:12:55.643Z,99036.12
2019-06-01T22:15:29.578Z,99046.16
2019-06-01T22:18:06.112Z,99044.19
2019-06-01T22:20:39.907Z,99046.34
2019-06-01T22:23:13.841Z,99046.50
2019-06-01T22:25:48.064Z,99042.08
2019-06-01T22:28:22.248Z,99040.20
2019-06-01T22:30:57.003Z,99043.31
2019-06-01T22:33:32.152Z,99043.17
2019-06-01T22:36:07.843Z,99043.17
2019-06-01T22:38:41.890Z,99045.56
2019-06-01T22:41:15.699Z,99037.33
2019-06-01T22:43:49.923Z,99038.06
2019-06-01T22:46:24.438Z,99043.54
2019-06-01T22:49:01.190Z,99044.87
2019-06-01T22:51:34.735Z,99037.23
2019-06-01T22:54:10.845Z,99041.48
2019-06-01T22:56:45.444Z,99039.22
2019-06-01T22:59:20.337Z,99043.16
2019-06-01T23:01:54.214Z,99044.33
2019-06-01T23:04:29.319Z,99037.78
2019-06-01T23:07:03.797Z,99031.09
2019-06-01T23:09:37.635Z,99030.75
2019-06-01T23:12:14.420Z,99033.47
2019-06-01T23:14:48.111Z,99028.82
2019-06-01T23:17:21.548Z,99028.48
2019-06-01T23:19:55.374Z,99026.08
2019-06-01T23:22:30.129Z,99027.86
2019-06-01T23:25:04.455Z,99029.55
2019-06-01T23:27:37.659Z,99032.17
2019-06-01T23:30:11.414Z,99026.77
2019-06-01T23:32:45.167Z,99023.80
2019-06-01T23:35:18.885Z,99024.15
2019-06-01T23:37:52.791Z,99030.23
2019-06-01T23:40:26.654Z,99032.48
2019-06-01T23:43:00.677Z,99036.80
2019-06-01T23:45:34.527Z,99034.77
2019-06-01T23:48:08.318Z,99027.61
2019-06-01T23:50:42.363Z,99034.64
2019-06-01T23:53:15.612Z,99026.86
2019-06-01T23:55:49.684Z,99028.52
2019-06-01T23:58:24.028Z,99027.20
